Time;durP1;ratioP1;P1;durP2;ratioP2;P2;SDS_P1;SDS_P2;PMS_P1;PMS_P2;Temp;Humidity;BMP_temperature;BMP_pressure;BME280_temperature;BME280_humidity;BME280_pressure;Samples;Min_cycle;Max_cycle;Signal;HPM_P1;HPM_P2
2023/12/11 00:01:02;;;;;;;10.13;2.55;;;;;;;;;;5125058;28;20122;-59
2023/12/11 00:03:28;;;;;;;18.95;3.60;;;;;;;;;;5125355;28;20043;-59
2023/12/11 00:05:54;;;;;;;12.07;2.80;;;;;;;;;;5127093;27;20042;-59
2023/12/11 00:08:20;;;;;;;12.25;3.72;;;;;;;;;;5129094;27;20085;-59
2023/12/11 00:10:46;;;;;;;13.10;3.05;;;;;;;;;;5129686;27;20438;-59
2023/12/11 00:13:13;;;;;;;18.95;3.78;;;;;;;;;;5130022;27;20072;-59
2023/12/11 00:15:42;;;;;;;19.83;4.53;;;;;;;;;;5129210;27;20046;-59
2023/12/11 00:18:08;;;;;;;18.92;4.60;;;;;;;;;;5129750;27;20035;-59
2023/12/11 00:20:34;;;;;;;20.48;4.07;;;;;;;;;;5129904;27;20035;-59
2023/12/11 00:23:00;;;;;;;12.45;3.80;;;;;;;;;;5128781;27;20054;-59
2023/12/11 00:25:29;;;;;;;21.63;4.90;;;;;;;;;;5129495;27;20490;-59
2023/12/11 00:27:55;;;;;;;24.55;4.97;;;;;;;;;;5129054;27;20061;-59
2023/12/11 00:30:21;;;;;;;14.10;4.20;;;;;;;;;;5129119;27;20043;-58
2023/12/11 00:32:47;;;;;;;22.67;5.18;;;;;;;;;;5129779;27;20042;-59
2023/12/11 00:35:14;;;;;;;22.17;5.38;;;;;;;;;;5129522;27;20275;-59
2023/12/11 00:37:40;;;;;;;25.13;4.82;;;;;;;;;;5128665;27;20036;-59
2023/12/11 00:40:07;;;;;;;24.77;4.90;;;;;;;;;;5129353;27;20468;-59
2023/12/11 00:42:33;;;;;;;22.77;4.63;;;;;;;;;;5129309;27;20031;-59
2023/12/11 00:44:59;;;;;;;21.30;5.47;;;;;;;;;;5128512;27;20047;-59
2023/12/11 00:47:25;;;;;;;23.42;5.50;;;;;;;;;;5129041;27;20043;-59
2023/12/11 00:49:51;;;;;;;18.17;4.63;;;;;;;;;;5129566;27;20054;-59
2023/12/11 00:52:17;;;;;;;23.35;5.97;;;;;;;;;;5128418;27;20426;-59
2023/12/11 00:54:43;;;;;;;20.92;4.57;;;;;;;;;;5118359;27;20328;-59
2023/12/11 00:57:09;;;;;;;24.08;5.22;;;;;;;;;;5129311;27;20134;-59
2023/12/11 00:59:35;;;;;;;26.33;6.40;;;;;;;;;;5117940;27;20035;-60
2023/12/11 01:02:01;;;;;;;22.92;5.25;;;;;;;;;;5128406;27;20069;-59
2023/12/11 01:04:27;;;;;;;25.15;6.22;;;;;;;;;;5119998;27;20047;-60
2023/12/11 01:06:53;;;;;;;20.00;5.53;;;;;;;;;;5125093;27;20076;-59
2023/12/11 01:09:19;;;;;;;16.02;4.38;;;;;;;;;;5129126;27;20046;-59
2023/12/11 01:11:45;;;;;;;22.13;5.18;;;;;;;;;;5117287;27;20681;-59
2023/12/11 01:14:11;;;;;;;23.92;5.22;;;;;;;;;;5127702;27;20122;-59
2023/12/11 01:16:37;;;;;;;24.98;5.47;;;;;;;;;;5118640;27;20096;-59
2023/12/11 01:19:03;;;;;;;27.13;6.03;;;;;;;;;;5120170;27;20031;-59
2023/12/11 01:21:29;;;;;;;25.00;5.80;;;;;;;;;;5125555;27;20067;-59
2023/12/11 01:23:55;;;;;;;24.02;6.47;;;;;;;;;;5120900;27;20047;-59
2023/12/11 01:26:21;;;;;;;23.20;5.88;;;;;;;;;;5121408;27;20058;-59
2023/12/11 01:28:47;;;;;;;23.77;5.72;;;;;;;;;;5127657;27;20031;-59
2023/12/11 01:31:13;;;;;;;28.08;4.85;;;;;;;;;;5127399;27;20053;-59
2023/12/11 01:33:39;;;;;;;25.00;6.57;;;;;;;;;;5122222;27;20059;-59
2023/12/11 01:36:06;;;;;;;32.95;5.97;;;;;;;;;;5121842;27;20659;-59
2023/12/11 01:38:32;;;;;;;21.95;5.13;;;;;;;;;;5128095;27;20043;-59
2023/12/11 01:40:58;;;;;;;18.13;5.25;;;;;;;;;;5127421;27;20387;-59
2023/12/11 01:43:25;;;;;;;18.75;4.72;;;;;;;;;;5121835;27;20073;-59
2023/12/11 01:46:00;;;;;;;22.23;6.43;;;;;;;;;;5128311;27;20043;-59
2023/12/11 01:48:26;;;;;;;29.88;6.30;;;;;;;;;;5127264;27;20047;-59
2023/12/11 01:50:52;;;;;;;20.45;4.22;;;;;;;;;;5128451;27;20043;-59
2023/12/11 01:53:18;;;;;;;33.33;6.32;;;;;;;;;;5128268;27;20068;-59
2023/12/11 01:55:47;;;;;;;22.45;5.88;;;;;;;;;;5127017;27;20112;-59
2023/12/11 01:58:13;;;;;;;29.52;6.25;;;;;;;;;;5127514;27;20043;-59
2023/12/11 02:00:39;;;;;;;23.92;5.45;;;;;;;;;;5126902;27;20780;-59
2023/12/11 02:03:05;;;;;;;15.68;4.65;;;;;;;;;;5127857;27;20039;-59
2023/12/11 02:05:31;;;;;;;18.73;5.40;;;;;;;;;;5126872;27;20047;-59
2023/12/11 02:07:58;;;;;;;18.67;4.32;;;;;;;;;;5123637;27;20031;-59
2023/12/11 02:10:25;;;;;;;17.17;4.32;;;;;;;;;;5127325;27;20047;-59
2023/12/11 02:12:51;;;;;;;14.77;3.50;;;;;;;;;;5127849;27;20035;-59
2023/12/11 02:15:35;;;;;;;22.00;4.63;;;;;;;;;;5126575;27;20391;-60
2023/12/11 02:18:01;;;;;;;22.67;4.88;;;;;;;;;;5119329;27;20077;-59
2023/12/11 02:20:27;;;;;;;22.67;4.82;;;;;;;;;;5127404;27;20066;-59
2023/12/11 02:22:55;;;;;;;14.40;4.43;;;;;;;;;;5126162;27;20541;-61
2023/12/11 02:25:23;;;;;;;15.02;4.18;;;;;;;;;;5127571;27;20043;-59
2023/12/11 02:27:49;;;;;;;21.67;6.50;;;;;;;;;;5127001;27;20130;-59
2023/12/11 02:30:15;;;;;;;21.33;4.85;;;;;;;;;;5126454;27;20039;-59
2023/12/11 02:32:41;;;;;;;26.40;6.40;;;;;;;;;;5127435;27;20076;-59
2023/12/11 02:35:07;;;;;;;28.20;6.00;;;;;;;;;;5126764;27;20043;-59
2023/12/11 02:37:33;;;;;;;30.13;6.15;;;;;;;;;;5126575;27;20471;-60
2023/12/11 02:39:59;;;;;;;26.77;6.18;;;;;;;;;;5127173;27;20046;-59
2023/12/11 02:42:25;;;;;;;23.13;5.20;;;;;;;;;;5127387;27;20043;-59
2023/12/11 02:44:51;;;;;;;33.13;6.28;;;;;;;;;;5126651;27;20039;-59
2023/12/11 02:47:17;;;;;;;24.38;5.68;;;;;;;;;;5126782;27;20039;-59
2023/12/11 02:49:43;;;;;;;18.83;5.38;;;;;;;;;;5126447;27;20091;-59
2023/12/11 02:52:09;;;;;;;28.10;5.22;;;;;;;;;;5125955;27;20380;-59
2023/12/11 02:54:35;;;;;;;35.30;6.25;;;;;;;;;;5108123;27;20046;-59
2023/12/11 02:57:01;;;;;;;23.90;5.90;;;;;;;;;;5125962;27;20039;-59
2023/12/11 02:59:27;;;;;;;28.38;5.47;;;;;;;;;;5126560;27;20132;-61
2023/12/11 03:01:53;;;;;;;25.42;6.20;;;;;;;;;;5126746;27;20436;-59
2023/12/11 03:04:19;;;;;;;23.88;5.72;;;;;;;;;;5126294;27;20279;-59
2023/12/11 03:06:45;;;;;;;20.35;5.38;;;;;;;;;;5126335;27;20057;-59
2023/12/11 03:09:11;;;;;;;21.95;5.22;;;;;;;;;;5126240;27;20111;-60
2023/12/11 03:11:37;;;;;;;23.73;5.80;;;;;;;;;;5125676;27;20750;-59
2023/12/11 03:14:03;;;;;;;32.88;6.13;;;;;;;;;;5126352;27;20073;-59
2023/12/11 03:16:29;;;;;;;31.10;6.28;;;;;;;;;;5125853;27;20091;-59
2023/12/11 03:18:55;;;;;;;23.35;5.57;;;;;;;;;;5124972;27;20058;-59
2023/12/11 03:21:21;;;;;;;26.95;5.78;;;;;;;;;;5126244;27;20071;-59
2023/12/11 03:23:47;;;;;;;28.20;5.45;;;;;;;;;;5122806;27;20086;-59
2023/12/11 03:26:13;;;;;;;33.03;6.50;;;;;;;;;;5124760;27;20506;-59
2023/12/11 03:28:39;;;;;;;21.77;5.25;;;;;;;;;;5122796;27;20077;-59
2023/12/11 03:31:05;;;;;;;36.13;6.00;;;;;;;;;;5124842;27;20066;-59
2023/12/11 03:33:31;;;;;;;34.30;7.50;;;;;;;;;;5125412;27;20512;-59
2023/12/11 03:35:57;;;;;;;31.55;6.80;;;;;;;;;;5125764;27;20039;-59
2023/12/11 03:38:23;;;;;;;27.75;6.05;;;;;;;;;;5126609;28;20046;-59
2023/12/11 03:40:50;;;;;;;36.65;8.48;;;;;;;;;;5125332;27;20082;-59
2023/12/11 03:43:16;;;;;;;32.95;7.25;;;;;;;;;;5126033;28;20088;-60
2023/12/11 03:45:42;;;;;;;40.63;7.28;;;;;;;;;;5126087;28;20431;-59
2023/12/11 03:48:08;;;;;;;28.15;6.43;;;;;;;;;;5118249;28;20044;-59
2023/12/11 03:50:34;;;;;;;31.13;6.25;;;;;;;;;;5118187;28;20061;-59
2023/12/11 03:53:00;;;;;;;37.83;7.30;;;;;;;;;;5125833;28;20039;-60
2023/12/11 03:55:26;;;;;;;23.27;6.35;;;;;;;;;;5125385;28;20050;-59
2023/12/11 03:57:52;;;;;;;26.10;6.40;;;;;;;;;;5126511;28;20035;-59
2023/12/11 04:00:18;;;;;;;37.75;7.60;;;;;;;;;;5118815;28;20039;-59
2023/12/11 04:02:44;;;;;;;32.63;7.53;;;;;;;;;;5126122;28;20043;-60
2023/12/11 04:05:10;;;;;;;26.95;6.30;;;;;;;;;;5125922;28;20050;-59
2023/12/11 04:07:36;;;;;;;29.63;6.32;;;;;;;;;;5125584;28;20076;-59
2023/12/11 04:10:03;;;;;;;30.67;5.80;;;;;;;;;;5123901;28;20039;-59
2023/12/11 04:12:29;;;;;;;26.55;5.65;;;;;;;;;;5125022;28;20043;-59
2023/12/11 04:14:55;;;;;;;30.40;6.82;;;;;;;;;;5125911;28;20593;-59
2023/12/11 04:17:21;;;;;;;22.45;5.60;;;;;;;;;;5126841;28;20046;-59
2023/12/11 04:19:47;;;;;;;27.25;6.05;;;;;;;;;;5126119;28;20035;-59
2023/12/11 04:22:13;;;;;;;26.45;5.88;;;;;;;;;;5125381;28;20035;-59
2023/12/11 04:24:39;;;;;;;34.80;7.07;;;;;;;;;;5125721;28;20050;-59
2023/12/11 04:27:05;;;;;;;23.40;6.40;;;;;;;;;;5125533;28;20035;-59
2023/12/11 04:29:31;;;;;;;19.58;4.97;;;;;;;;;;5124907;28;20046;-59
2023/12/11 04:31:57;;;;;;;30.60;6.45;;;;;;;;;;5125663;28;20407;-59
2023/12/11 04:34:23;;;;;;;24.25;4.88;;;;;;;;;;5125989;28;20035;-59
2023/12/11 04:36:50;;;;;;;32.13;6.55;;;;;;;;;;5106451;28;20062;-59
2023/12/11 04:39:16;;;;;;;27.13;6.10;;;;;;;;;;5125514;28;20039;-59
2023/12/11 04:41:42;;;;;;;23.52;5.40;;;;;;;;;;5125518;28;20050;-59
2023/12/11 04:44:08;;;;;;;34.00;7.15;;;;;;;;;;5124583;28;20042;-59
2023/12/11 04:46:34;;;;;;;24.77;5.40;;;;;;;;;;5125604;28;20046;-59
2023/12/11 04:49:00;;;;;;;28.30;5.90;;;;;;;;;;5125191;28;20062;-59
2023/12/11 04:51:26;;;;;;;32.25;7.30;;;;;;;;;;5125999;27;20054;-59
2023/12/11 04:53:52;;;;;;;20.58;6.13;;;;;;;;;;5129744;27;20035;-59
2023/12/11 04:56:18;;;;;;;24.73;5.50;;;;;;;;;;5129215;27;20415;-59
2023/12/11 04:58:44;;;;;;;27.95;6.22;;;;;;;;;;5128806;27;20031;-59
2023/12/11 05:01:10;;;;;;;21.02;5.38;;;;;;;;;;5110732;27;20054;-59
2023/12/11 05:03:36;;;;;;;19.90;5.72;;;;;;;;;;5128138;27;20663;-59
2023/12/11 05:06:03;;;;;;;19.17;4.80;;;;;;;;;;5129096;27;20164;-59
2023/12/11 05:08:29;;;;;;;19.80;5.20;;;;;;;;;;5128866;27;20031;-59
2023/12/11 05:10:55;;;;;;;22.90;5.07;;;;;;;;;;5128469;27;20489;-59
2023/12/11 05:13:21;;;;;;;22.63;4.63;;;;;;;;;;5129013;27;20525;-59
2023/12/11 05:15:47;;;;;;;19.52;4.75;;;;;;;;;;5122323;27;20163;-58
2023/12/11 05:18:13;;;;;;;17.65;3.60;;;;;;;;;;5127140;27;20038;-59
2023/12/11 05:20:39;;;;;;;17.23;5.03;;;;;;;;;;5128360;27;20130;-59
2023/12/11 05:23:05;;;;;;;17.52;3.85;;;;;;;;;;5128300;27;20100;-59
2023/12/11 05:25:31;;;;;;;21.60;4.30;;;;;;;;;;5127685;27;20051;-59
2023/12/11 05:27:57;;;;;;;19.73;3.95;;;;;;;;;;5128227;27;20057;-59
2023/12/11 05:30:23;;;;;;;22.27;4.50;;;;;;;;;;5128732;27;20047;-59
2023/12/11 05:32:49;;;;;;;22.58;4.63;;;;;;;;;;5125632;27;20512;-59
2023/12/11 05:35:15;;;;;;;16.58;4.35;;;;;;;;;;5128208;27;20047;-59
2023/12/11 05:37:41;;;;;;;27.13;5.70;;;;;;;;;;5128155;27;20074;-59
2023/12/11 05:40:07;;;;;;;19.60;4.70;;;;;;;;;;5127508;27;20067;-59
2023/12/11 05:42:33;;;;;;;19.50;4.32;;;;;;;;;;5128413;27;20036;-59
2023/12/11 05:44:59;;;;;;;23.10;4.90;;;;;;;;;;5128224;27;20050;-59
2023/12/11 05:47:25;;;;;;;26.95;5.55;;;;;;;;;;5128046;27;20037;-59
2023/12/11 05:49:51;;;;;;;20.35;4.40;;;;;;;;;;5128081;27;20132;-59
2023/12/11 05:52:17;;;;;;;14.35;3.55;;;;;;;;;;5115169;27;20117;-59
2023/12/11 05:54:43;;;;;;;16.25;4.78;;;;;;;;;;5118395;27;20571;-59
2023/12/11 05:57:10;;;;;;;18.08;4.13;;;;;;;;;;5113324;27;20189;-59
2023/12/11 05:59:36;;;;;;;19.60;4.07;;;;;;;;;;5121409;27;20525;-59
2023/12/11 06:02:02;;;;;;;13.23;3.90;;;;;;;;;;5113665;27;20414;-60
2023/12/11 06:04:28;;;;;;;23.45;4.32;;;;;;;;;;5116918;27;20035;-59
2023/12/11 06:06:54;;;;;;;20.65;4.53;;;;;;;;;;5114932;27;20047;-59
2023/12/11 06:09:20;;;;;;;25.08;4.93;;;;;;;;;;5120012;27;20058;-59
2023/12/11 06:11:46;;;;;;;20.77;5.10;;;;;;;;;;5117995;27;20035;-59
2023/12/11 06:14:12;;;;;;;9.02;2.97;;;;;;;;;;5114088;27;20036;-59
2023/12/11 06:16:38;;;;;;;16.73;3.85;;;;;;;;;;5118634;27;20042;-58
2023/12/11 06:19:04;;;;;;;17.67;4.05;;;;;;;;;;5113854;27;20028;-59
2023/12/11 06:21:30;;;;;;;13.15;3.72;;;;;;;;;;5115918;27;20071;-59
2023/12/11 06:23:56;;;;;;;17.38;4.25;;;;;;;;;;5112912;27;20034;-59
2023/12/11 06:26:25;;;;;;;20.92;4.15;;;;;;;;;;5114167;27;20042;-59
2023/12/11 06:28:51;;;;;;;16.50;4.13;;;;;;;;;;5112670;27;20096;-58
2023/12/11 06:31:17;;;;;;;14.75;3.47;;;;;;;;;;5114709;27;20035;-59
2023/12/11 06:33:43;;;;;;;18.50;4.78;;;;;;;;;;5111795;27;20054;-59
2023/12/11 06:36:09;;;;;;;16.75;4.22;;;;;;;;;;5113373;27;20047;-59
2023/12/11 06:38:35;;;;;;;23.80;5.13;;;;;;;;;;5110225;27;20042;-59
2023/12/11 06:41:01;;;;;;;17.75;4.43;;;;;;;;;;5113855;27;20043;-59
2023/12/11 06:43:28;;;;;;;17.88;3.67;;;;;;;;;;5113426;27;20049;-59
2023/12/11 06:45:54;;;;;;;9.57;2.95;;;;;;;;;;5114640;27;20104;-59
2023/12/11 06:48:20;;;;;;;14.68;3.03;;;;;;;;;;5111984;27;20063;-59
2023/12/11 06:50:46;;;;;;;17.73;3.53;;;;;;;;;;5092179;28;20557;-59
2023/12/11 06:53:12;;;;;;;23.67;4.32;;;;;;;;;;5119613;27;20544;-59
2023/12/11 06:55:38;;;;;;;19.52;4.85;;;;;;;;;;5119871;27;20059;-59
2023/12/11 06:58:04;;;;;;;14.10;3.88;;;;;;;;;;5109401;27;20044;-59
2023/12/11 07:00:30;;;;;;;18.27;4.47;;;;;;;;;;5112849;27;20618;-59
2023/12/11 07:02:56;;;;;;;17.52;4.13;;;;;;;;;;5115977;27;20519;-59
2023/12/11 07:05:22;;;;;;;21.10;4.28;;;;;;;;;;5116729;27;20039;-59
2023/12/11 07:07:48;;;;;;;16.92;3.70;;;;;;;;;;5110962;27;20046;-59
2023/12/11 07:10:14;;;;;;;18.42;4.75;;;;;;;;;;5118535;27;20048;-59
2023/12/11 07:12:42;;;;;;;18.15;4.03;;;;;;;;;;5115315;27;20039;-58
2023/12/11 07:15:08;;;;;;;14.68;4.03;;;;;;;;;;5112801;27;20049;-59
2023/12/11 07:17:34;;;;;;;20.17;3.50;;;;;;;;;;5113939;27;20043;-59
2023/12/11 07:20:00;;;;;;;18.45;3.50;;;;;;;;;;5115419;27;20100;-59
2023/12/11 07:22:26;;;;;;;12.57;3.22;;;;;;;;;;5115202;27;20093;-58
2023/12/11 07:24:52;;;;;;;10.45;3.17;;;;;;;;;;5111509;27;20027;-59
2023/12/11 07:27:18;;;;;;;9.77;2.80;;;;;;;;;;5110957;27;20046;-59
2023/12/11 07:29:44;;;;;;;12.02;2.85;;;;;;;;;;5112078;27;20048;-59
2023/12/11 07:32:10;;;;;;;13.43;4.35;;;;;;;;;;5115775;28;20039;-59
2023/12/11 07:34:37;;;;;;;13.75;3.70;;;;;;;;;;5113744;27;20039;-59
2023/12/11 07:37:03;;;;;;;17.40;3.83;;;;;;;;;;5108936;27;20041;-59
2023/12/11 07:39:29;;;;;;;12.63;3.45;;;;;;;;;;5109839;28;20047;-59
2023/12/11 07:41:55;;;;;;;12.48;2.70;;;;;;;;;;5101698;28;20059;-59
2023/12/11 07:44:21;;;;;;;10.18;3.30;;;;;;;;;;5114470;28;20068;-59
2023/12/11 07:46:47;;;;;;;9.88;3.25;;;;;;;;;;5113332;28;20122;-59
2023/12/11 07:49:13;;;;;;;11.10;2.70;;;;;;;;;;5109630;28;20190;-59
2023/12/11 07:51:39;;;;;;;5.40;1.83;;;;;;;;;;5112436;28;20112;-59
2023/12/11 07:54:06;;;;;;;15.98;3.13;;;;;;;;;;5110097;28;20060;-59
2023/12/11 07:56:32;;;;;;;8.77;2.22;;;;;;;;;;5109062;28;20032;-59
2023/12/11 07:58:58;;;;;;;8.27;2.88;;;;;;;;;;5109818;28;20110;-59
2023/12/11 08:01:24;;;;;;;9.23;2.78;;;;;;;;;;5111526;28;20035;-59
2023/12/11 08:03:50;;;;;;;9.43;2.45;;;;;;;;;;5111883;28;20058;-60
2023/12/11 08:06:17;;;;;;;8.43;2.50;;;;;;;;;;5115263;27;20035;-59
2023/12/11 08:08:43;;;;;;;13.27;3.47;;;;;;;;;;5114633;28;20085;-59
2023/12/11 08:11:24;;;;;;;8.57;1.95;;;;;;;;;;5119417;28;20042;-59
2023/12/11 08:13:50;;;;;;;7.13;2.33;;;;;;;;;;5113729;28;20047;-59
2023/12/11 08:16:17;;;;;;;6.45;1.55;;;;;;;;;;5100419;28;20036;-59
2023/12/11 08:18:47;;;;;;;10.43;2.70;;;;;;;;;;5119846;28;20031;-59
2023/12/11 08:21:14;;;;;;;7.43;2.75;;;;;;;;;;5113811;28;20047;-59
2023/12/11 08:23:40;;;;;;;8.00;2.28;;;;;;;;;;5116858;28;20097;-59
2023/12/11 08:26:07;;;;;;;9.20;2.45;;;;;;;;;;5113868;27;20054;-59
2023/12/11 08:28:33;;;;;;;8.70;2.85;;;;;;;;;;5120734;27;20550;-59
2023/12/11 08:30:59;;;;;;;4.07;1.63;;;;;;;;;;5121881;27;20035;-59
2023/12/11 08:33:26;;;;;;;6.95;2.03;;;;;;;;;;5122125;27;20035;-59
2023/12/11 08:35:53;;;;;;;4.40;1.30;;;;;;;;;;5117263;27;20043;-59
2023/12/11 08:38:21;;;;;;;3.78;1.52;;;;;;;;;;5114069;27;20169;-60
2023/12/11 08:40:47;;;;;;;7.38;1.92;;;;;;;;;;5115289;27;20036;-59
2023/12/11 08:43:13;;;;;;;6.55;1.67;;;;;;;;;;5118805;27;20095;-59
2023/12/11 08:45:39;;;;;;;4.05;1.85;;;;;;;;;;5115814;27;20071;-60
2023/12/11 08:48:05;;;;;;;11.55;2.25;;;;;;;;;;5114770;27;20110;-60
2023/12/11 08:50:32;;;;;;;5.68;2.05;;;;;;;;;;5107674;27;20048;-59
2023/12/11 08:53:00;;;;;;;4.78;1.83;;;;;;;;;;5109405;27;20119;-59
2023/12/11 08:55:26;;;;;;;8.15;2.40;;;;;;;;;;5110999;27;20047;-59
2023/12/11 08:57:52;;;;;;;8.60;2.13;;;;;;;;;;5107467;27;20131;-61
2023/12/11 09:00:18;;;;;;;4.55;1.88;;;;;;;;;;5109116;27;20046;-59
2023/12/11 09:02:44;;;;;;;8.43;2.67;;;;;;;;;;5118193;27;20758;-58
2023/12/11 09:05:10;;;;;;;3.72;2.00;;;;;;;;;;5125932;27;20122;-62
2023/12/11 09:07:36;;;;;;;3.80;1.60;;;;;;;;;;5125887;27;20031;-58
2023/12/11 09:10:03;;;;;;;7.85;2.47;;;;;;;;;;5121486;27;20054;-60
2023/12/11 09:12:29;;;;;;;5.53;1.75;;;;;;;;;;5121809;27;20117;-60
2023/12/11 09:14:56;;;;;;;8.10;2.50;;;;;;;;;;5115480;27;20103;-59
2023/12/11 09:17:22;;;;;;;7.03;2.20;;;;;;;;;;5118674;27;20550;-61
2023/12/11 09:19:48;;;;;;;5.18;2.00;;;;;;;;;;5112840;27;20806;-60
2023/12/11 09:22:14;;;;;;;5.20;1.90;;;;;;;;;;5118972;27;20042;-60
2023/12/11 09:24:40;;;;;;;5.78;1.63;;;;;;;;;;5116811;27;20139;-61
2023/12/11 09:27:07;;;;;;;4.93;1.80;;;;;;;;;;5117342;27;20031;-60
2023/12/11 09:29:33;;;;;;;6.68;2.22;;;;;;;;;;5115558;27;20382;-60
2023/12/11 09:32:00;;;;;;;5.00;2.15;;;;;;;;;;5115489;27;20164;-60
2023/12/11 09:34:26;;;;;;;2.72;1.45;;;;;;;;;;5114213;27;20044;-60
2023/12/11 09:36:52;;;;;;;4.22;1.52;;;;;;;;;;5115211;27;20042;-63
2023/12/11 09:39:18;;;;;;;3.45;1.63;;;;;;;;;;5117660;27;20441;-63
2023/12/11 09:41:44;;;;;;;2.90;1.85;;;;;;;;;;5117308;27;20404;-63
2023/12/11 09:44:11;;;;;;;4.38;1.70;;;;;;;;;;5120869;27;20038;-64
2023/12/11 09:46:50;;;;;;;5.13;1.30;;;;;;;;;;5122093;27;20038;-63
2023/12/11 09:49:17;;;;;;;2.42;1.20;;;;;;;;;;5120474;27;20063;-63
2023/12/11 09:51:43;;;;;;;4.75;1.38;;;;;;;;;;5115281;27;20120;-63
2023/12/11 09:54:09;;;;;;;4.07;1.17;;;;;;;;;;5119133;27;20058;-63
2023/12/11 09:56:36;;;;;;;7.85;1.77;;;;;;;;;;5124398;27;20058;-63
2023/12/11 09:59:03;;;;;;;4.13;1.52;;;;;;;;;;5123020;27;20575;-63
2023/12/11 10:01:30;;;;;;;5.07;1.88;;;;;;;;;;5119467;27;20078;-63
2023/12/11 10:03:56;;;;;;;7.72;1.95;;;;;;;;;;5116595;27;20074;-64
2023/12/11 10:06:24;;;;;;;6.30;1.80;;;;;;;;;;5123239;27;20180;-63
2023/12/11 10:08:53;;;;;;;4.50;1.30;;;;;;;;;;5124101;27;20499;-64
2023/12/11 10:11:22;;;;;;;2.83;1.15;;;;;;;;;;5125575;27;20058;-63
2023/12/11 10:13:48;;;;;;;3.00;1.10;;;;;;;;;;5117681;27;20126;-63
2023/12/11 10:16:31;;;;;;;2.55;1.00;;;;;;;;;;5119705;27;20050;-63
2023/12/11 10:18:57;;;;;;;3.78;1.15;;;;;;;;;;5121434;27;20039;-63
2023/12/11 10:21:27;;;;;;;6.20;1.58;;;;;;;;;;5119464;27;20039;-63
2023/12/11 10:24:14;;;;;;;2.30;1.15;;;;;;;;;;5118446;27;20409;-63
2023/12/11 10:26:45;;;;;;;2.97;1.05;;;;;;;;;;5120212;27;20074;-64
2023/12/11 10:29:17;;;;;;;4.63;1.15;;;;;;;;;;5119863;27;20423;-64
2023/12/11 10:31:43;;;;;;;3.78;0.93;;;;;;;;;;5122165;27;20043;-64
2023/12/11 10:34:09;;;;;;;4.20;1.48;;;;;;;;;;5120792;27;20031;-64
2023/12/11 10:36:35;;;;;;;3.45;1.33;;;;;;;;;;5122928;27;20039;-63
2023/12/11 10:39:08;;;;;;;10.30;1.92;;;;;;;;;;5122644;27;20043;-64
2023/12/11 10:41:34;;;;;;;3.58;1.35;;;;;;;;;;5119647;27;20047;-64
2023/12/11 10:44:00;;;;;;;7.72;2.15;;;;;;;;;;5123985;27;20388;-64
2023/12/11 10:46:27;;;;;;;4.13;1.15;;;;;;;;;;5117666;27;20046;-63
2023/12/11 10:48:54;;;;;;;7.78;1.65;;;;;;;;;;5118767;27;20073;-62
2023/12/11 10:51:21;;;;;;;9.02;2.35;;;;;;;;;;5126171;27;20047;-63
2023/12/11 10:53:47;;;;;;;3.10;1.40;;;;;;;;;;5120130;27;20094;-63
2023/12/11 10:56:13;;;;;;;6.82;1.67;;;;;;;;;;5118524;27;20070;-63
2023/12/11 10:58:39;;;;;;;6.25;1.45;;;;;;;;;;5119702;27;20081;-63
2023/12/11 11:01:06;;;;;;;5.30;1.65;;;;;;;;;;5118245;27;20039;-63
2023/12/11 11:03:33;;;;;;;6.97;1.42;;;;;;;;;;5124840;27;20045;-63
2023/12/11 11:06:00;;;;;;;4.55;1.90;;;;;;;;;;5125208;27;20047;-63
2023/12/11 11:08:36;;;;;;;8.82;2.33;;;;;;;;;;5125270;27;20077;-63
2023/12/11 11:11:09;;;;;;;11.23;2.22;;;;;;;;;;5121727;27;20455;-63
2023/12/11 11:13:39;;;;;;;9.02;2.35;;;;;;;;;;5124660;27;20042;-63
2023/12/11 11:16:06;;;;;;;13.05;2.63;;;;;;;;;;5106689;27;20657;-63
2023/12/11 11:18:51;;;;;;;10.85;2.70;;;;;;;;;;5119587;27;20041;-63
2023/12/11 11:21:17;;;;;;;11.18;2.22;;;;;;;;;;5102854;27;20555;-63
2023/12/11 11:23:45;;;;;;;2.88;1.38;;;;;;;;;;5105692;27;20088;-63
2023/12/11 11:26:31;;;;;;;5.63;1.35;;;;;;;;;;5125025;27;20121;-63
2023/12/11 11:28:58;;;;;;;7.82;1.27;;;;;;;;;;5112654;27;20118;-63
2023/12/11 11:31:43;;;;;;;2.60;1.00;;;;;;;;;;5116542;27;20062;-63
2023/12/11 11:34:11;;;;;;;8.88;1.40;;;;;;;;;;5118085;27;20256;-63
2023/12/11 11:36:45;;;;;;;3.17;1.10;;;;;;;;;;5104395;27;20490;-63
2023/12/11 11:39:12;;;;;;;2.42;0.60;;;;;;;;;;5119676;27;20123;-63
2023/12/11 11:41:38;;;;;;;4.70;1.13;;;;;;;;;;5119975;28;20146;-63
2023/12/11 11:44:08;;;;;;;3.70;1.27;;;;;;;;;;5123314;27;20047;-63
2023/12/11 11:46:50;;;;;;;5.25;1.50;;;;;;;;;;5122101;28;20051;-63
2023/12/11 11:49:23;;;;;;;3.90;1.00;;;;;;;;;;5116898;28;20490;-63
2023/12/11 11:51:49;;;;;;;5.05;1.38;;;;;;;;;;5123696;28;20410;-63
2023/12/11 11:54:15;;;;;;;1.73;0.90;;;;;;;;;;5115755;28;20047;-63
2023/12/11 11:56:45;;;;;;;4.93;1.45;;;;;;;;;;5124646;28;20112;-62
2023/12/11 11:59:11;;;;;;;3.75;0.98;;;;;;;;;;5119713;28;20053;-62
2023/12/11 12:01:48;;;;;;;2.38;0.70;;;;;;;;;;5122175;27;20032;-62
2023/12/11 12:04:24;;;;;;;2.60;0.85;;;;;;;;;;5127179;27;20074;-62
2023/12/11 12:06:50;;;;;;;2.90;1.00;;;;;;;;;;5125916;27;20093;-62
2023/12/11 12:09:17;;;;;;;4.53;1.08;;;;;;;;;;5126842;27;20047;-62
2023/12/11 12:11:43;;;;;;;1.92;0.80;;;;;;;;;;5123088;27;20095;-62
2023/12/11 12:14:13;;;;;;;4.10;1.10;;;;;;;;;;5124331;27;20038;-62
2023/12/11 12:16:39;;;;;;;4.38;0.85;;;;;;;;;;5121207;27;20556;-62
2023/12/11 12:19:05;;;;;;;6.15;1.75;;;;;;;;;;5128577;27;20131;-62
2023/12/11 12:21:32;;;;;;;8.75;2.20;;;;;;;;;;5124158;27;20091;-63
2023/12/11 12:24:04;;;;;;;6.70;2.92;;;;;;;;;;5123643;27;20039;-63
2023/12/11 12:26:32;;;;;;;6.38;1.80;;;;;;;;;;5104672;27;20419;-63
2023/12/11 12:28:58;;;;;;;7.45;2.50;;;;;;;;;;5120733;27;20049;-63
2023/12/11 12:31:24;;;;;;;5.10;1.75;;;;;;;;;;5118771;27;21664;-62
2023/12/11 12:33:51;;;;;;;8.00;1.70;;;;;;;;;;5125829;27;20043;-62
2023/12/11 12:36:17;;;;;;;7.20;2.17;;;;;;;;;;5119079;27;20074;-62
2023/12/11 12:38:43;;;;;;;7.10;1.70;;;;;;;;;;5120123;27;20051;-62
2023/12/11 12:41:12;;;;;;;8.95;1.80;;;;;;;;;;5114785;27;20402;-62
2023/12/11 12:43:38;;;;;;;8.63;2.58;;;;;;;;;;5115712;27;20072;-62
2023/12/11 12:46:05;;;;;;;4.85;1.40;;;;;;;;;;5115600;27;20113;-62
2023/12/11 12:48:31;;;;;;;7.00;1.63;;;;;;;;;;5110275;27;20414;-62
2023/12/11 12:51:06;;;;;;;7.88;1.75;;;;;;;;;;5115949;27;20058;-63
2023/12/11 12:53:32;;;;;;;5.57;1.77;;;;;;;;;;5122235;27;20289;-63
2023/12/11 12:55:58;;;;;;;7.85;1.70;;;;;;;;;;5119961;27;20035;-62
2023/12/11 12:58:29;;;;;;;4.65;1.40;;;;;;;;;;5107917;27;20040;-62
2023/12/11 13:00:58;;;;;;;5.32;1.48;;;;;;;;;;5109092;27;20516;-62
2023/12/11 13:03:25;;;;;;;4.13;0.98;;;;;;;;;;5125449;27;20124;-62
2023/12/11 13:05:55;;;;;;;5.00;1.42;;;;;;;;;;5123634;27;20039;-62
2023/12/11 13:08:21;;;;;;;5.07;1.70;;;;;;;;;;5122721;27;20756;-62
2023/12/11 13:10:56;;;;;;;2.95;1.05;;;;;;;;;;5124769;27;20046;-62
2023/12/11 13:13:26;;;;;;;5.30;0.80;;;;;;;;;;5123000;27;20148;-62
2023/12/11 13:15:52;;;;;;;3.55;0.73;;;;;;;;;;5124506;27;20506;-62
2023/12/11 13:18:18;;;;;;;5.18;1.17;;;;;;;;;;5125690;27;20502;-62
2023/12/11 13:20:44;;;;;;;1.98;0.75;;;;;;;;;;5105220;27;20051;-63
2023/12/11 13:23:10;;;;;;;7.63;1.27;;;;;;;;;;5106322;27;20050;-63
2023/12/11 13:25:36;;;;;;;5.93;1.15;;;;;;;;;;5120080;27;20043;-63
2023/12/11 13:28:03;;;;;;;5.55;1.42;;;;;;;;;;5126199;27;20541;-63
2023/12/11 13:30:29;;;;;;;4.40;0.85;;;;;;;;;;5126874;27;20043;-63
2023/12/11 13:32:55;;;;;;;1.67;0.77;;;;;;;;;;5127399;27;20479;-63
2023/12/11 13:35:21;;;;;;;4.95;0.93;;;;;;;;;;5127157;27;20046;-63
2023/12/11 13:37:47;;;;;;;2.42;1.23;;;;;;;;;;5126156;27;20399;-63
2023/12/11 13:40:16;;;;;;;2.50;0.47;;;;;;;;;;5126926;27;20236;-63
2023/12/11 13:42:42;;;;;;;3.33;0.70;;;;;;;;;;5127256;27;20043;-63
2023/12/11 13:45:08;;;;;;;2.25;0.80;;;;;;;;;;5119473;27;20515;-63
2023/12/11 13:47:34;;;;;;;2.28;0.77;;;;;;;;;;5124497;27;20039;-63
2023/12/11 13:50:00;;;;;;;1.52;0.43;;;;;;;;;;5127214;27;20053;-63
2023/12/11 13:52:26;;;;;;;3.90;0.70;;;;;;;;;;5126126;27;20050;-63
2023/12/11 13:54:52;;;;;;;6.35;1.20;;;;;;;;;;5126664;27;20039;-63
2023/12/11 13:57:21;;;;;;;2.13;0.70;;;;;;;;;;5127081;27;20043;-62
2023/12/11 13:59:49;;;;;;;2.78;0.95;;;;;;;;;;5126600;27;20122;-62
2023/12/11 14:02:15;;;;;;;5.60;0.93;;;;;;;;;;5126753;27;20122;-62
2023/12/11 14:04:41;;;;;;;2.97;0.80;;;;;;;;;;5124272;27;20126;-62
2023/12/11 14:07:07;;;;;;;2.85;0.70;;;;;;;;;;5122014;27;20083;-62
2023/12/11 14:09:34;;;;;;;3.00;0.80;;;;;;;;;;5120071;27;20135;-62
2023/12/11 14:12:00;;;;;;;2.60;1.23;;;;;;;;;;5116395;27;20640;-62
2023/12/11 14:14:26;;;;;;;4.80;0.77;;;;;;;;;;5113240;27;20278;-62
2023/12/11 14:16:52;;;;;;;2.83;0.88;;;;;;;;;;5123727;27;20126;-62
2023/12/11 14:19:18;;;;;;;2.88;0.88;;;;;;;;;;5115405;27;20466;-62
2023/12/11 14:21:44;;;;;;;6.55;1.15;;;;;;;;;;5114242;27;20048;-62
2023/12/11 14:24:10;;;;;;;5.35;1.27;;;;;;;;;;5113544;27;20043;-62
2023/12/11 14:26:36;;;;;;;3.13;0.80;;;;;;;;;;5116330;27;20663;-62
2023/12/11 14:29:02;;;;;;;4.47;0.82;;;;;;;;;;5116450;27;20058;-62
2023/12/11 14:31:28;;;;;;;1.42;0.50;;;;;;;;;;5119469;27;20039;-62
2023/12/11 14:33:54;;;;;;;1.98;0.50;;;;;;;;;;5098866;27;20046;-62